createdAt,value
2018-09-18T00:00:47.741Z,17.28
2018-09-18T00:01:47.752Z,17.30
2018-09-18T00:02:47.772Z,17.26
2018-09-18T00:03:47.795Z,17.28
2018-09-18T00:04:47.797Z,17.26
2018-09-18T00:05:47.814Z,17.31
2018-09-18T00:06:47.831Z,17.22
2018-09-18T00:07:47.843Z,17.18
2018-09-18T00:08:47.857Z,17.26
2018-09-18T00:09:47.871Z,17.26
2018-09-18T00:10:47.885Z,17.21
2018-09-18T00:11:47.924Z,17.36
2018-09-18T00:12:47.914Z,17.34
2018-09-18T00:13:47.930Z,17.40
2018-09-18T00:14:47.944Z,17.49
2018-09-18T00:15:47.957Z,17.40
2018-09-18T00:16:47.971Z,17.43
2018-09-18T00:17:48.192Z,17.46
2018-09-18T00:18:48.611Z,17.48
2018-09-18T00:19:48.047Z,17.41
2018-09-18T00:20:48.028Z,17.44
2018-09-18T00:21:48.046Z,17.52
2018-09-18T00:22:48.060Z,17.52
2018-09-18T00:23:48.074Z,17.46
2018-09-18T00:24:48.088Z,17.52
2018-09-18T00:25:48.118Z,17.41
2018-09-18T00:26:48.122Z,17.37
2018-09-18T00:27:48.134Z,17.41
2018-09-18T00:28:48.149Z,17.48
2018-09-18T00:29:48.164Z,17.37
2018-09-18T00:30:48.178Z,17.36
2018-09-18T00:31:48.192Z,17.37
2018-09-18T00:32:48.205Z,17.34
2018-09-18T00:33:48.231Z,17.40
2018-09-18T00:34:48.236Z,17.34
2018-09-18T00:35:48.257Z,17.34
2018-09-18T00:36:48.266Z,17.33
2018-09-18T00:37:48.280Z,17.34
2018-09-18T00:38:48.294Z,17.36
2018-09-18T00:39:48.313Z,17.38
2018-09-18T00:40:48.326Z,17.38
2018-09-18T00:41:48.336Z,17.37
2018-09-18T00:42:48.352Z,17.41
2018-09-18T00:43:48.367Z,17.31
2018-09-18T00:44:48.381Z,17.36
2018-09-18T00:45:48.395Z,17.41
2018-09-18T00:46:48.410Z,17.34
2018-09-18T00:47:48.438Z,17.46
2018-09-18T00:48:48.436Z,17.43
2018-09-18T00:49:48.467Z,17.30
2018-09-18T00:50:48.469Z,17.36
2018-09-18T00:51:48.939Z,17.36
2018-09-18T00:52:48.544Z,17.38
2018-09-18T00:53:48.539Z,17.48
2018-09-18T00:54:48.526Z,17.46
2018-09-18T00:55:48.548Z,17.46
2018-09-18T00:56:48.555Z,17.48
2018-09-18T00:57:48.570Z,17.48
2018-09-18T00:58:48.594Z,17.46
2018-09-18T00:59:48.598Z,17.41
2018-09-18T01:00:48.613Z,17.38
2018-09-18T01:01:48.630Z,17.44
2018-09-18T01:02:48.641Z,17.44
2018-09-18T01:03:48.658Z,17.48
2018-09-18T01:04:48.668Z,17.51
2018-09-18T01:05:48.686Z,17.38
2018-09-18T01:06:48.700Z,17.55
2018-09-18T01:07:48.729Z,17.44
2018-09-18T01:08:48.745Z,17.46
2018-09-18T01:09:48.743Z,17.40
2018-09-18T01:10:48.761Z,17.48
2018-09-18T01:11:48.771Z,17.46
2018-09-18T01:12:48.816Z,17.46
2018-09-18T01:13:48.802Z,17.36
2018-09-18T01:14:48.830Z,17.44
2018-09-18T01:15:48.830Z,17.48
2018-09-18T01:16:48.844Z,17.36
2018-09-18T01:17:48.860Z,17.37
2018-09-18T01:18:48.878Z,17.40
2018-09-18T01:19:48.890Z,17.48
2018-09-18T01:20:48.907Z,17.48
2018-09-18T01:21:48.922Z,17.44
2018-09-18T01:22:48.933Z,17.36
2018-09-18T01:23:48.944Z,17.40
2018-09-18T01:24:48.959Z,17.38
2018-09-18T01:25:50.229Z,17.34
2018-09-18T01:26:48.989Z,17.25
2018-09-18T01:27:49.001Z,17.25
2018-09-18T01:28:49.046Z,17.19
2018-09-18T01:29:49.033Z,17.16
2018-09-18T01:30:49.052Z,17.19
2018-09-18T01:31:49.063Z,17.07
2018-09-18T01:32:49.283Z,17.11
2018-09-18T01:33:49.093Z,17.08
2018-09-18T01:34:49.109Z,17.07
2018-09-18T01:35:49.119Z,17.14
2018-09-18T01:36:49.136Z,17.12
2018-09-18T01:37:49.150Z,17.08
2018-09-18T01:38:49.164Z,17.07
2018-09-18T01:39:49.177Z,17.16
2018-09-18T01:40:49.192Z,17.21
2018-09-18T01:41:49.221Z,17.15
2018-09-18T01:42:49.530Z,17.18
2018-09-18T01:43:49.259Z,17.19
2018-09-18T01:44:49.258Z,17.04
2018-09-18T01:45:49.262Z,17.12
2018-09-18T01:46:49.278Z,17.21
2018-09-18T01:47:49.287Z,17.19
2018-09-18T01:48:49.301Z,17.21
2018-09-18T01:49:49.624Z,17.19
2018-09-18T01:50:49.335Z,17.19
2018-09-18T01:51:49.349Z,17.16
2018-09-18T01:52:49.360Z,17.19
2018-09-18T01:53:49.428Z,17.21
2018-09-18T01:54:49.439Z,17.16
2018-09-18T01:55:49.613Z,17.14
2018-09-18T01:57:49.456Z,17.12
2018-09-18T01:58:49.462Z,17.07
2018-09-18T01:59:49.472Z,17.07
2018-09-18T02:00:49.475Z,17.06
2018-09-18T02:01:49.489Z,17.06
2018-09-18T02:02:49.504Z,17.03
2018-09-18T02:03:49.540Z,16.97
2018-09-18T02:04:49.532Z,16.97
2018-09-18T02:05:49.551Z,16.98
2018-09-18T02:06:49.570Z,17.03
2018-09-18T02:07:49.577Z,17.00
2018-09-18T02:08:49.590Z,17.01
2018-09-18T02:09:49.611Z,17.00
2018-09-18T02:10:49.620Z,16.97
2018-09-18T02:11:49.632Z,17.01
2018-09-18T02:12:49.649Z,16.98
2018-09-18T02:13:49.663Z,16.96
2018-09-18T02:14:49.680Z,16.96
2018-09-18T02:15:49.691Z,16.94
2018-09-18T02:16:49.709Z,16.98
2018-09-18T02:17:49.722Z,17.00
2018-09-18T02:18:49.736Z,16.98
2018-09-18T02:19:49.748Z,17.00
2018-09-18T02:20:49.763Z,17.00
2018-09-18T02:21:49.780Z,16.94
2018-09-18T02:22:49.810Z,16.96
2018-09-18T02:23:49.811Z,16.96
2018-09-18T02:24:49.821Z,16.91
2018-09-18T02:25:49.836Z,17.00
2018-09-18T02:26:49.850Z,16.97
2018-09-18T02:27:49.863Z,16.98
2018-09-18T02:28:49.878Z,17.06
2018-09-18T02:29:50.097Z,17.00
2018-09-18T02:30:50.065Z,16.94
2018-09-18T02:31:50.534Z,16.94
2018-09-18T02:32:50.333Z,16.98
2018-09-18T02:33:49.951Z,16.91
2018-09-18T02:34:49.973Z,16.96
2018-09-18T02:35:49.985Z,16.94
2018-09-18T02:36:49.994Z,16.96
2018-09-18T02:37:50.009Z,16.94
2018-09-18T02:38:50.024Z,16.82
2018-09-18T02:39:50.037Z,16.93
2018-09-18T02:40:50.055Z,16.96
2018-09-18T02:41:50.067Z,16.89
2018-09-18T02:42:50.081Z,16.86
2018-09-18T02:43:50.096Z,16.97
2018-09-18T02:44:50.112Z,16.93
2018-09-18T02:45:50.126Z,16.97
2018-09-18T02:46:50.140Z,16.89
2018-09-18T02:47:50.152Z,16.93
2018-09-18T02:48:50.167Z,16.91
2018-09-18T02:49:50.182Z,16.98
2018-09-18T02:50:50.196Z,16.96
2018-09-18T02:51:50.210Z,16.91
2018-09-18T02:52:50.227Z,16.94
2018-09-18T02:53:50.240Z,16.93
2018-09-18T02:54:50.255Z,16.94
2018-09-18T02:55:50.267Z,16.91
2018-09-18T02:56:50.283Z,16.98
2018-09-18T02:57:50.296Z,16.93
2018-09-18T02:58:50.311Z,16.93
2018-09-18T02:59:50.329Z,16.89
2018-09-18T03:00:50.339Z,16.79
2018-09-18T03:01:50.359Z,16.78
2018-09-18T03:02:50.368Z,16.85
2018-09-18T03:03:50.489Z,16.78
2018-09-18T03:04:50.453Z,16.88
2018-09-18T03:05:50.413Z,16.79
2018-09-18T03:06:50.426Z,16.85
2018-09-18T03:07:50.444Z,16.94
2018-09-18T03:08:50.456Z,16.94
2018-09-18T03:09:50.469Z,16.94
2018-09-18T03:10:50.495Z,16.82
2018-09-18T03:11:50.497Z,16.79
2018-09-18T03:12:50.819Z,16.85
2018-09-18T03:13:50.527Z,16.82
2018-09-18T03:14:50.544Z,16.88
2018-09-18T03:15:50.562Z,16.82
2018-09-18T03:16:50.568Z,16.85
2018-09-18T03:17:50.594Z,16.88
2018-09-18T03:18:50.602Z,16.88
2018-09-18T03:19:50.613Z,16.78
2018-09-18T03:20:50.705Z,16.78
2018-09-18T03:21:50.641Z,16.79
2018-09-18T03:22:50.658Z,16.88
2018-09-18T03:23:50.670Z,16.81
2018-09-18T03:24:50.685Z,16.91
2018-09-18T03:25:50.700Z,16.81
2018-09-18T03:26:50.714Z,16.83
2018-09-18T03:27:50.736Z,16.78
2018-09-18T03:28:50.956Z,16.78
2018-09-18T03:29:50.757Z,16.78
2018-09-18T03:30:50.793Z,16.83
2018-09-18T03:31:50.784Z,16.88
2018-09-18T03:32:50.848Z,16.86
2018-09-18T03:34:50.945Z,16.73
2018-09-18T03:36:50.862Z,16.78
2018-09-18T03:37:50.870Z,16.76
2018-09-18T03:38:50.889Z,16.73
2018-09-18T03:39:50.900Z,16.67
2018-09-18T03:40:50.917Z,16.71
2018-09-18T03:41:50.928Z,16.64
2018-09-18T03:42:50.944Z,16.64
2018-09-18T03:43:50.957Z,16.61
2018-09-18T03:44:50.970Z,16.66
2018-09-18T03:45:50.992Z,16.61
2018-09-18T03:46:51.007Z,16.64
2018-09-18T03:47:51.019Z,16.64
2018-09-18T03:48:51.028Z,16.64
2018-09-18T03:49:51.045Z,16.66
2018-09-18T03:50:51.058Z,16.64
2018-09-18T03:51:51.077Z,16.61
2018-09-18T03:52:51.088Z,16.67
2018-09-18T03:53:51.116Z,16.64
2018-09-18T03:54:51.116Z,16.64
2018-09-18T03:55:51.129Z,16.66
2018-09-18T03:56:51.144Z,16.67
2018-09-18T03:57:51.159Z,16.64
2018-09-18T03:58:51.174Z,16.61
2018-09-18T03:59:51.187Z,16.64
2018-09-18T04:00:51.201Z,16.61
2018-09-18T04:01:51.216Z,16.63
2018-09-18T04:02:51.373Z,16.63
2018-09-18T04:03:51.253Z,16.64
2018-09-18T04:04:51.266Z,16.63
2018-09-18T04:05:51.273Z,16.67
2018-09-18T04:06:51.292Z,16.63
2018-09-18T04:07:51.704Z,16.58
2018-09-18T04:08:51.326Z,16.60
2018-09-18T04:09:51.332Z,16.63
2018-09-18T04:10:51.420Z,16.58
2018-09-18T04:11:51.360Z,16.58
2018-09-18T04:12:51.372Z,16.56
2018-09-18T04:13:51.385Z,16.60
2018-09-18T04:14:51.405Z,16.57
2018-09-18T04:15:51.420Z,16.61
2018-09-18T04:16:51.430Z,16.60
2018-09-18T04:17:51.443Z,16.52
2018-09-18T04:18:51.464Z,16.60
2018-09-18T04:19:51.471Z,16.52
2018-09-18T04:20:51.486Z,16.52
2018-09-18T04:22:51.519Z,16.48
2018-09-18T04:23:51.529Z,16.53
2018-09-18T04:24:51.545Z,16.46
2018-09-18T04:25:51.558Z,16.45
2018-09-18T04:26:51.575Z,16.46
2018-09-18T04:27:51.587Z,16.45
2018-09-18T04:28:51.601Z,16.49
2018-09-18T04:29:51.622Z,16.43
2018-09-18T04:30:51.631Z,16.41
2018-09-18T04:31:51.652Z,16.46
2018-09-18T04:32:51.661Z,16.49
2018-09-18T04:33:51.673Z,16.46
2018-09-18T04:34:51.685Z,16.43
2018-09-18T04:35:51.699Z,16.41
2018-09-18T04:36:51.716Z,16.31
2018-09-18T04:37:54.194Z,16.38
2018-09-18T04:38:51.744Z,16.34
2018-09-18T04:39:51.758Z,16.38
2018-09-18T04:40:51.771Z,16.24
2018-09-18T04:41:51.809Z,16.24
2018-09-18T04:42:51.806Z,16.15
2018-09-18T04:43:51.815Z,16.25
2018-09-18T04:44:51.828Z,16.05
2018-09-18T04:45:51.897Z,16.12
2018-09-18T04:46:51.858Z,16.17
2018-09-18T04:47:51.872Z,16.27
2018-09-18T04:48:51.896Z,16.24
2018-09-18T04:49:51.902Z,16.12
2018-09-18T04:50:51.928Z,16.17
2018-09-18T04:51:51.928Z,16.12
2018-09-18T04:52:51.945Z,16.08
2018-09-18T04:53:51.958Z,16.01
2018-09-18T04:54:52.026Z,16.05
2018-09-18T04:55:51.990Z,16.09
2018-09-18T04:56:52.000Z,16.08
2018-09-18T04:57:52.017Z,16.11
2018-09-18T04:58:52.029Z,16.08
2018-09-18T04:59:52.042Z,16.12
2018-09-18T05:00:52.076Z,16.09
2018-09-18T05:01:52.080Z,16.07
2018-09-18T05:02:52.087Z,16.04
2018-09-18T05:03:52.101Z,16.11
2018-09-18T05:04:52.118Z,16.05
2018-09-18T05:05:52.137Z,16.04
2018-09-18T05:06:52.143Z,16.08
2018-09-18T05:07:52.159Z,16.07
2018-09-18T05:08:52.170Z,16.09
2018-09-18T05:09:52.188Z,15.94
2018-09-18T05:10:52.201Z,16.00
2018-09-18T05:11:52.214Z,15.97
2018-09-18T05:12:52.229Z,16.04
2018-09-18T05:13:52.247Z,16.00
2018-09-18T05:14:52.260Z,15.96
2018-09-18T05:15:52.274Z,15.93
2018-09-18T05:16:52.285Z,16.02
2018-09-18T05:17:52.300Z,15.92
2018-09-18T05:18:52.314Z,15.94
2018-09-18T05:19:52.328Z,15.94
2018-09-18T05:20:52.342Z,15.97
2018-09-18T05:21:52.355Z,15.97
2018-09-18T05:22:52.377Z,16.02
2018-09-18T05:23:52.395Z,15.97
2018-09-18T05:24:52.510Z,16.05
2018-09-18T05:25:52.680Z,16.07
2018-09-18T05:26:52.427Z,16.07
2018-09-18T05:27:52.444Z,16.01
2018-09-18T05:28:52.455Z,16.00
2018-09-18T05:29:52.470Z,16.00
2018-09-18T05:30:52.485Z,16.02
2018-09-18T05:31:52.511Z,16.01
2018-09-18T05:32:52.511Z,16.00
2018-09-18T05:33:52.527Z,16.04
2018-09-18T05:34:52.843Z,16.01
2018-09-18T05:35:52.554Z,16.07
2018-09-18T05:36:52.570Z,16.01
2018-09-18T05:37:52.587Z,16.09
2018-09-18T05:38:52.598Z,16.04
2018-09-18T05:39:52.613Z,16.02
2018-09-18T05:40:52.627Z,16.09
2018-09-18T05:41:52.707Z,16.07
2018-09-18T05:42:52.660Z,16.12
2018-09-18T05:43:52.669Z,16.07
2018-09-18T05:44:52.682Z,16.07
2018-09-18T05:45:52.701Z,16.07
2018-09-18T05:46:52.714Z,16.07
2018-09-18T05:47:52.731Z,16.09
2018-09-18T05:48:52.856Z,16.12
2018-09-18T05:49:52.846Z,16.02
2018-09-18T05:50:52.777Z,16.08
2018-09-18T05:51:52.868Z,16.05
2018-09-18T05:52:53.200Z,16.08
2018-09-18T05:53:52.816Z,16.15
2018-09-18T05:54:52.825Z,16.11
2018-09-18T05:55:52.861Z,16.15
2018-09-18T05:56:52.897Z,16.20
2018-09-18T05:57:52.883Z,16.11
2018-09-18T05:58:52.948Z,16.02
2018-09-18T05:59:52.896Z,16.12
2018-09-18T06:00:52.910Z,16.23
2018-09-18T06:01:53.043Z,16.15
2018-09-18T06:02:52.998Z,16.20
2018-09-18T06:03:53.170Z,16.17
2018-09-18T06:04:53.679Z,16.20
2018-09-18T06:05:52.984Z,16.30
2018-09-18T06:06:53.019Z,16.28
2018-09-18T06:07:53.479Z,16.35
2018-09-18T06:08:53.025Z,16.27
2018-09-18T06:10:53.136Z,16.35
2018-09-18T06:11:53.715Z,16.33
2018-09-18T06:13:53.779Z,16.39
2018-09-18T06:14:53.110Z,16.49
2018-09-18T06:15:53.139Z,16.43
2018-09-18T06:17:53.152Z,16.49
2018-09-18T06:18:53.219Z,16.48
2018-09-18T06:19:53.182Z,16.49
2018-09-18T06:20:53.197Z,16.48
2018-09-18T06:21:53.215Z,16.61
2018-09-18T06:22:53.229Z,16.61
2018-09-18T06:23:53.256Z,16.57
2018-09-18T06:24:53.270Z,16.64
2018-09-18T06:25:53.566Z,16.64
2018-09-18T06:26:53.285Z,16.68
2018-09-18T06:27:53.401Z,16.71
2018-09-18T06:28:53.527Z,16.73
2018-09-18T06:29:53.325Z,16.76
2018-09-18T06:30:53.342Z,16.81
2018-09-18T06:31:54.106Z,16.78
2018-09-18T06:32:53.368Z,16.79
2018-09-18T06:33:53.547Z,16.79
2018-09-18T06:34:53.399Z,16.76
2018-09-18T06:35:53.411Z,16.81
2018-09-18T06:36:54.342Z,16.76
2018-09-18T06:37:53.442Z,16.79
2018-09-18T06:38:53.465Z,16.79
2018-09-18T06:40:53.484Z,16.93
2018-09-18T06:41:53.503Z,16.93
2018-09-18T06:42:53.519Z,16.94
2018-09-18T06:43:53.544Z,16.96
2018-09-18T06:44:53.542Z,17.00
2018-09-18T06:45:53.556Z,17.08
2018-09-18T06:46:53.573Z,17.06
2018-09-18T06:47:53.627Z,17.22
2018-09-18T06:48:53.615Z,17.19
2018-09-18T06:49:54.708Z,17.23
2018-09-18T06:50:53.702Z,17.23
2018-09-18T06:51:53.657Z,17.33
2018-09-18T06:52:53.669Z,17.38
2018-09-18T06:53:53.674Z,17.34
2018-09-18T06:54:53.889Z,17.46
2018-09-18T06:55:53.700Z,17.46
2018-09-18T06:56:53.723Z,17.52
2018-09-18T06:57:53.728Z,17.46
2018-09-18T06:58:53.954Z,17.54
2018-09-18T06:59:53.757Z,17.58
2018-09-18T07:00:53.776Z,17.64
2018-09-18T07:01:54.437Z,17.71
2018-09-18T07:02:53.803Z,17.70
2018-09-18T07:03:53.816Z,17.70
2018-09-18T07:04:53.840Z,17.77
2018-09-18T07:05:53.862Z,17.79
2018-09-18T07:06:53.861Z,17.86
2018-09-18T07:07:53.900Z,17.86
2018-09-18T07:08:53.903Z,17.90
2018-09-18T07:09:53.901Z,17.97
2018-09-18T07:10:53.937Z,18.05
2018-09-18T07:11:53.943Z,18.11
2018-09-18T07:12:53.945Z,18.12
2018-09-18T07:13:53.962Z,18.10
2018-09-18T07:14:53.995Z,18.27
2018-09-18T07:15:53.990Z,18.30
2018-09-18T07:16:54.036Z,18.27
2018-09-18T07:17:54.056Z,18.44
2018-09-18T07:18:54.216Z,18.47
2018-09-18T07:19:54.048Z,18.52
2018-09-18T07:20:55.396Z,18.55
2018-09-18T07:21:54.074Z,18.55
2018-09-18T07:22:55.022Z,18.66
2018-09-18T07:23:54.108Z,18.66
2018-09-18T07:24:54.143Z,18.72
2018-09-18T07:25:54.186Z,18.70
2018-09-18T07:26:54.175Z,18.80
2018-09-18T07:27:54.161Z,18.80
2018-09-18T07:28:54.188Z,18.88
2018-09-18T07:29:54.203Z,18.88
2018-09-18T07:30:54.231Z,18.98
2018-09-18T07:31:54.219Z,19.08
2018-09-18T07:32:54.238Z,19.21
2018-09-18T07:33:54.378Z,19.25
2018-09-18T07:34:54.265Z,19.31
2018-09-18T07:35:54.583Z,19.26
2018-09-18T07:36:54.292Z,19.33
2018-09-18T07:37:54.307Z,19.48
2018-09-18T07:38:54.331Z,19.54
2018-09-18T07:39:54.335Z,19.69
2018-09-18T07:40:54.368Z,19.68
2018-09-18T07:41:54.388Z,19.77
2018-09-18T07:42:54.382Z,19.84
2018-09-18T07:43:54.419Z,19.88
2018-09-18T07:44:54.410Z,19.98
2018-09-18T07:45:54.424Z,19.94
2018-09-18T07:46:54.439Z,19.99
2018-09-18T07:47:54.482Z,20.03
2018-09-18T07:48:54.481Z,20.05
2018-09-18T07:49:54.486Z,20.21
2018-09-18T07:50:54.500Z,20.14
2018-09-18T07:51:54.520Z,20.16
2018-09-18T07:52:54.531Z,20.13
2018-09-18T07:53:54.542Z,20.26
2018-09-18T07:54:54.574Z,20.29
2018-09-18T07:55:54.645Z,20.31
2018-09-18T07:57:54.620Z,20.35
2018-09-18T07:58:54.628Z,20.42
2018-09-18T07:59:54.646Z,20.57
2018-09-18T08:00:54.649Z,20.74
2018-09-18T08:01:54.665Z,20.73
2018-09-18T08:03:54.720Z,20.94
2018-09-18T08:04:54.793Z,21.03
2018-09-18T08:05:54.723Z,21.09
2018-09-18T08:06:54.749Z,21.10
2018-09-18T08:07:54.753Z,21.22
2018-09-18T08:08:54.787Z,21.32
2018-09-18T08:09:54.784Z,21.27
2018-09-18T08:10:54.836Z,21.38
2018-09-18T08:11:54.834Z,21.47
2018-09-18T08:12:54.827Z,21.38
2018-09-18T08:13:54.855Z,21.35
2018-09-18T08:14:54.859Z,21.61
2018-09-18T08:15:54.887Z,21.65
2018-09-18T08:16:54.890Z,21.75
2018-09-18T08:17:54.903Z,21.80
2018-09-18T08:18:54.979Z,21.84
2018-09-18T08:19:55.326Z,21.82
2018-09-18T08:20:55.013Z,21.96
2018-09-18T08:21:55.004Z,22.02
2018-09-18T08:22:54.978Z,22.17
2018-09-18T08:23:54.994Z,22.25
2018-09-18T08:24:55.008Z,22.40
2018-09-18T08:25:55.026Z,22.36
2018-09-18T08:26:55.040Z,22.47
2018-09-18T08:27:55.059Z,22.60
2018-09-18T08:28:55.073Z,22.64
2018-09-18T08:29:55.090Z,22.76
2018-09-18T08:30:55.100Z,22.80
2018-09-18T08:31:55.114Z,22.76
2018-09-18T08:32:55.145Z,22.91
2018-09-18T08:33:55.147Z,23.00
2018-09-18T08:34:55.162Z,22.98
2018-09-18T08:35:55.174Z,23.07
2018-09-18T08:36:55.254Z,23.09
2018-09-18T08:37:55.257Z,23.10
2018-09-18T08:38:55.364Z,23.05
2018-09-18T08:39:55.708Z,23.09
2018-09-18T08:40:55.278Z,23.09
2018-09-18T08:41:55.277Z,23.09
2018-09-18T08:42:55.316Z,23.13
2018-09-18T08:43:55.316Z,23.28
2018-09-18T08:44:55.312Z,23.35
2018-09-18T08:45:55.350Z,23.28
2018-09-18T08:46:55.454Z,23.31
2018-09-18T08:47:55.361Z,23.38
2018-09-18T08:48:55.389Z,23.36
2018-09-18T08:49:55.390Z,23.36
2018-09-18T08:50:55.404Z,23.46
2018-09-18T08:51:55.453Z,23.55
2018-09-18T08:52:55.453Z,23.61
2018-09-18T08:53:55.462Z,23.72
2018-09-18T08:54:55.492Z,23.60
2018-09-18T08:55:55.493Z,23.69
2018-09-18T08:56:55.592Z,23.79
2018-09-18T08:57:55.521Z,23.79
2018-09-18T08:58:55.864Z,23.87
2018-09-18T08:59:55.575Z,23.83
2018-09-18T09:00:55.561Z,23.90
2018-09-18T09:01:55.617Z,23.97
2018-09-18T09:02:55.591Z,24.06
2018-09-18T09:03:55.654Z,24.13
2018-09-18T09:04:55.632Z,24.12
2018-09-18T09:05:55.754Z,24.12
2018-09-18T09:06:55.660Z,24.09
2018-09-18T09:07:55.808Z,24.30
2018-09-18T09:08:55.902Z,24.22
2018-09-18T09:09:55.750Z,24.35
2018-09-18T09:10:55.770Z,24.40
2018-09-18T09:11:55.746Z,24.45
2018-09-18T09:12:55.745Z,24.47
2018-09-18T09:13:55.765Z,24.52
2018-09-18T09:14:55.809Z,24.49
2018-09-18T09:15:55.792Z,24.58
2018-09-18T09:16:55.808Z,24.55
2018-09-18T09:17:55.823Z,24.67
2018-09-18T09:18:55.848Z,24.65
2018-09-18T09:19:55.862Z,24.64
2018-09-18T09:20:55.959Z,24.77
2018-09-18T09:21:56.028Z,24.88
2018-09-18T09:22:56.026Z,24.95
2018-09-18T09:23:56.030Z,25.13
2018-09-18T09:24:55.941Z,25.14
2018-09-18T09:25:55.972Z,25.27
2018-09-18T09:26:56.069Z,25.25
2018-09-18T09:27:56.061Z,25.35
2018-09-18T09:28:56.016Z,25.46
2018-09-18T09:29:56.111Z,25.47
2018-09-18T09:30:56.048Z,25.47
2018-09-18T09:31:56.046Z,25.58
2018-09-18T09:32:56.068Z,25.61
2018-09-18T09:33:56.088Z,25.57
2018-09-18T09:34:56.096Z,25.64
2018-09-18T09:35:56.121Z,25.72
2018-09-18T09:36:56.184Z,25.76
2018-09-18T09:37:56.143Z,25.77
2018-09-18T09:38:56.235Z,25.73
2018-09-18T09:39:56.179Z,25.80
2018-09-18T09:40:56.187Z,26.05
2018-09-18T09:41:56.413Z,26.05
2018-09-18T09:42:56.272Z,26.12
2018-09-18T09:43:56.405Z,26.10
2018-09-18T09:44:56.415Z,26.21
2018-09-18T09:45:56.447Z,26.21
2018-09-18T09:46:56.286Z,26.29
2018-09-18T09:47:56.317Z,26.32
2018-09-18T09:48:56.332Z,26.35
2018-09-18T09:49:56.345Z,26.47
2018-09-18T09:50:56.347Z,26.55
2018-09-18T09:51:56.424Z,26.62
2018-09-18T09:52:56.381Z,26.55
2018-09-18T09:53:56.404Z,26.73
2018-09-18T09:54:56.529Z,26.75
2018-09-18T09:55:56.463Z,26.80
2018-09-18T09:56:56.549Z,26.80
2018-09-18T09:57:56.478Z,26.80
2018-09-18T09:58:56.612Z,26.87
2018-09-18T09:59:56.496Z,26.94
2018-09-18T10:00:56.510Z,27.07
2018-09-18T10:01:56.530Z,27.10
2018-09-18T10:02:56.613Z,27.10
2018-09-18T10:03:56.561Z,27.25
2018-09-18T10:04:56.580Z,27.32
2018-09-18T10:05:56.595Z,27.43
2018-09-18T10:06:56.610Z,27.39
2018-09-18T10:07:56.628Z,27.47
2018-09-18T10:08:56.641Z,27.46
2018-09-18T10:09:56.662Z,27.55
2018-09-18T10:10:56.798Z,27.55
2018-09-18T10:11:56.719Z,27.72
2018-09-18T10:12:56.755Z,27.75
2018-09-18T10:13:56.729Z,27.63
2018-09-18T10:14:56.742Z,27.55
2018-09-18T10:15:56.764Z,27.50
2018-09-18T10:16:56.775Z,27.47
2018-09-18T10:17:56.925Z,27.44
2018-09-18T10:18:56.815Z,27.54
2018-09-18T10:19:56.893Z,27.67
2018-09-18T10:20:56.852Z,27.74
2018-09-18T10:21:56.878Z,27.75
2018-09-18T10:22:56.875Z,27.79
2018-09-18T10:23:56.895Z,27.90
2018-09-18T10:24:56.957Z,27.92
2018-09-18T10:25:57.012Z,27.96
2018-09-18T10:26:57.029Z,27.96
2018-09-18T10:27:56.977Z,27.97
2018-09-18T10:28:56.997Z,28.07
2018-09-18T10:29:57.004Z,28.04
2018-09-18T10:30:57.027Z,28.17
2018-09-18T10:31:57.041Z,28.17
2018-09-18T10:32:57.215Z,28.15
2018-09-18T10:33:57.082Z,28.18
2018-09-18T10:34:57.082Z,28.21
2018-09-18T10:35:57.093Z,28.27
2018-09-18T10:36:57.130Z,28.17
2018-09-18T10:37:57.125Z,28.17
2018-09-18T10:38:57.140Z,28.18
2018-09-18T10:39:57.179Z,28.21
2018-09-18T10:40:57.347Z,28.14
2018-09-18T10:41:57.295Z,28.27
2018-09-18T10:42:57.311Z,28.29
2018-09-18T10:43:57.228Z,28.34
2018-09-18T10:44:57.264Z,28.37
2018-09-18T10:45:57.329Z,28.49
2018-09-18T10:46:57.661Z,28.44
2018-09-18T10:47:57.465Z,28.44
2018-09-18T10:48:57.319Z,28.49
2018-09-18T10:49:57.332Z,28.46
2018-09-18T10:50:57.351Z,28.52
2018-09-18T10:51:57.361Z,28.58
2018-09-18T10:52:57.481Z,28.67
2018-09-18T10:53:57.405Z,28.67
2018-09-18T10:54:57.464Z,28.68
2018-09-18T10:55:57.484Z,28.77
2018-09-18T10:56:57.447Z,28.74
2018-09-18T10:57:57.470Z,28.76
2018-09-18T10:58:57.480Z,28.88
2018-09-18T10:59:57.516Z,28.98
2018-09-18T11:00:57.518Z,29.02
2018-09-18T11:01:57.571Z,29.09
2018-09-18T11:02:57.581Z,29.15
2018-09-18T11:03:57.576Z,29.23
2018-09-18T11:04:57.614Z,29.30
2018-09-18T11:05:57.719Z,29.39
2018-09-18T11:06:57.717Z,29.33
2018-09-18T11:07:57.734Z,29.34
2018-09-18T11:08:57.673Z,29.23
2018-09-18T11:09:57.712Z,29.30
2018-09-18T11:10:57.703Z,29.19
2018-09-18T11:11:57.728Z,29.31
2018-09-18T11:12:57.717Z,29.33
2018-09-18T11:13:57.867Z,29.21
2018-09-18T11:14:57.791Z,29.09
2018-09-18T11:15:57.874Z,29.12
2018-09-18T11:16:57.790Z,29.06
2018-09-18T11:17:57.860Z,28.93
2018-09-18T11:18:57.840Z,28.95
2018-09-18T11:19:57.879Z,29.15
2018-09-18T11:20:57.882Z,29.18
2018-09-18T11:21:57.883Z,29.12
2018-09-18T11:22:57.891Z,29.16
2018-09-18T11:23:57.986Z,29.26
2018-09-18T11:24:57.932Z,29.37
2018-09-18T11:25:58.004Z,29.33
2018-09-18T11:26:57.993Z,29.31
2018-09-18T11:27:57.998Z,29.31
2018-09-18T11:28:57.997Z,29.37
2018-09-18T11:29:58.016Z,29.41
2018-09-18T11:30:58.038Z,29.46
2018-09-18T11:31:58.061Z,29.46
2018-09-18T11:32:58.184Z,29.49
2018-09-18T11:33:58.086Z,29.41
2018-09-18T11:34:58.101Z,29.36
2018-09-18T11:35:58.119Z,29.45
2018-09-18T11:36:58.839Z,29.52
2018-09-18T11:37:58.161Z,29.55
2018-09-18T11:38:58.173Z,29.55
2018-09-18T11:39:58.190Z,29.60
2018-09-18T11:40:58.207Z,29.49
2018-09-18T11:41:58.224Z,29.41
2018-09-18T11:42:58.242Z,29.49
2018-09-18T11:43:58.262Z,29.28
2018-09-18T11:44:58.278Z,29.34
2018-09-18T11:45:58.618Z,29.33
2018-09-18T11:46:58.314Z,29.33
2018-09-18T11:47:58.330Z,29.28
2018-09-18T11:48:58.353Z,29.33
2018-09-18T11:49:58.669Z,29.27
2018-09-18T11:50:58.385Z,29.34
2018-09-18T11:51:58.402Z,29.49
2018-09-18T11:52:58.485Z,29.45
2018-09-18T11:53:58.437Z,29.39
2018-09-18T11:54:58.457Z,29.45
2018-09-18T11:55:58.471Z,29.43
2018-09-18T11:56:58.527Z,29.43
2018-09-18T11:57:58.506Z,29.49
2018-09-18T11:58:58.523Z,29.43
2018-09-18T11:59:58.541Z,29.61
2018-09-18T12:00:58.582Z,29.67
2018-09-18T12:01:58.576Z,29.64
2018-09-18T12:02:58.645Z,29.67
2018-09-18T12:03:58.617Z,29.73
2018-09-18T12:04:58.646Z,29.73
2018-09-18T12:05:58.649Z,29.74
2018-09-18T12:06:58.690Z,29.78
2018-09-18T12:07:58.685Z,29.80
2018-09-18T12:08:58.744Z,30.00
2018-09-18T12:09:58.719Z,30.11
2018-09-18T12:10:58.740Z,30.19
2018-09-18T12:11:58.756Z,30.32
2018-09-18T12:12:59.661Z,30.27
2018-09-18T12:13:58.794Z,30.15
2018-09-18T12:14:58.810Z,29.97
2018-09-18T12:15:58.827Z,30.00
2018-09-18T12:16:58.906Z,29.92
2018-09-18T12:17:58.863Z,29.89
2018-09-18T12:18:58.883Z,29.94
2018-09-18T12:19:58.897Z,29.97
2018-09-18T12:20:58.915Z,29.82
2018-09-18T12:21:58.946Z,29.92
2018-09-18T12:22:58.972Z,29.79
2018-09-18T12:23:58.970Z,29.82
2018-09-18T12:24:58.992Z,29.90
2018-09-18T12:25:59.008Z,29.89
2018-09-18T12:26:59.025Z,30.04
2018-09-18T12:27:59.346Z,29.95
2018-09-18T12:28:59.061Z,29.94
2018-09-18T12:29:59.077Z,29.85
2018-09-18T12:30:59.098Z,29.90
2018-09-18T12:31:59.116Z,30.00
2018-09-18T12:32:59.149Z,29.90
2018-09-18T12:33:59.432Z,30.17
2018-09-18T12:34:59.172Z,30.16
2018-09-18T12:35:59.191Z,30.01
2018-09-18T12:36:59.212Z,30.26
2018-09-18T12:37:59.225Z,30.31
2018-09-18T12:38:59.239Z,30.42
2018-09-18T12:39:59.257Z,30.55
2018-09-18T12:40:59.279Z,30.64
2018-09-18T12:41:59.390Z,30.88
2018-09-18T12:42:59.312Z,30.80
2018-09-18T12:43:59.344Z,30.65
2018-09-18T12:44:59.348Z,30.62
2018-09-18T12:45:59.363Z,30.73
2018-09-18T12:46:59.383Z,30.84
2018-09-18T12:47:59.458Z,30.82
2018-09-18T12:48:59.455Z,31.02
2018-09-18T12:49:59.923Z,30.83
2018-09-18T12:50:59.536Z,30.62
2018-09-18T12:51:59.485Z,30.62
2018-09-18T12:53:01.129Z,30.65
2018-09-18T12:53:59.537Z,30.69
2018-09-18T12:54:59.576Z,30.51
2018-09-18T12:55:59.655Z,30.58
2018-09-18T12:56:59.680Z,30.57
2018-09-18T12:57:59.593Z,30.61
2018-09-18T12:58:59.795Z,30.64
2018-09-18T12:59:59.695Z,30.58
2018-09-18T13:00:59.668Z,30.53
2018-09-18T13:01:59.683Z,30.64
2018-09-18T13:02:59.678Z,30.69